createdAt,value
2017-12-03T00:00:10.716Z,1.83
2017-12-03T00:02:39.008Z,1.79
2017-12-03T00:05:07.289Z,1.86
2017-12-03T00:07:35.972Z,1.86
2017-12-03T00:10:04.273Z,1.78
2017-12-03T00:12:32.557Z,1.72
2017-12-03T00:15:00.862Z,1.71
2017-12-03T00:17:29.110Z,1.77
2017-12-03T00:19:57.399Z,1.81
2017-12-03T00:22:26.465Z,1.88
2017-12-03T00:24:54.744Z,1.92
2017-12-03T00:27:23.036Z,1.97
2017-12-03T00:29:51.329Z,2.01
2017-12-03T00:32:19.612Z,2.01
2017-12-03T00:34:47.920Z,1.99
2017-12-03T00:37:16.212Z,2.10
2017-12-03T00:39:44.521Z,2.08
2017-12-03T00:42:12.828Z,2.14
2017-12-03T00:44:41.233Z,2.08
2017-12-03T00:47:09.642Z,1.98
2017-12-03T00:49:38.167Z,1.97
2017-12-03T00:52:06.879Z,1.97
2017-12-03T00:54:35.192Z,1.90
2017-12-03T00:57:03.656Z,2.02
2017-12-03T00:59:32.182Z,2.07
2017-12-03T01:02:00.629Z,2.09
2017-12-03T01:04:28.984Z,2.18
2017-12-03T01:06:57.308Z,2.19
2017-12-03T01:09:26.366Z,2.18
2017-12-03T01:11:54.707Z,2.07
2017-12-03T01:14:22.999Z,2.07
2017-12-03T01:16:51.277Z,2.17
2017-12-03T01:19:19.592Z,2.18
2017-12-03T01:21:48.877Z,2.17
2017-12-03T01:24:17.181Z,2.06
2017-12-03T01:26:45.496Z,2.07
2017-12-03T01:29:13.789Z,2.14
2017-12-03T01:31:42.082Z,2.15
2017-12-03T01:34:10.374Z,2.13
2017-12-03T01:36:38.657Z,1.98
2017-12-03T01:39:07.709Z,1.93
2017-12-03T01:41:35.986Z,1.85
2017-12-03T01:44:04.265Z,1.86
2017-12-03T01:46:32.548Z,1.62
2017-12-03T01:49:00.825Z,1.47
2017-12-03T01:51:29.114Z,1.65
2017-12-03T01:53:57.408Z,1.69
2017-12-03T01:56:25.689Z,1.83
2017-12-03T01:58:54.760Z,1.90
2017-12-03T02:01:23.044Z,1.98
2017-12-03T02:03:51.337Z,2.08
2017-12-03T02:06:20.464Z,2.18
2017-12-03T02:08:49.909Z,2.16
2017-12-03T02:11:18.197Z,2.22
2017-12-03T02:13:46.485Z,2.10
2017-12-03T02:16:15.547Z,1.85
2017-12-03T02:18:43.849Z,1.88
2017-12-03T02:21:12.136Z,1.96
2017-12-03T02:23:40.438Z,2.02
2017-12-03T02:26:08.720Z,1.86
2017-12-03T02:28:36.997Z,1.89
2017-12-03T02:31:05.277Z,1.90
2017-12-03T02:33:33.561Z,1.86
2017-12-03T02:36:01.846Z,1.73
2017-12-03T02:38:30.120Z,1.74
2017-12-03T02:40:58.401Z,1.64
2017-12-03T02:43:26.680Z,1.74
2017-12-03T02:45:54.952Z,1.84
2017-12-03T02:48:23.236Z,1.69
2017-12-03T02:50:51.510Z,1.71
2017-12-03T02:53:19.788Z,1.80
2017-12-03T02:55:48.068Z,1.76
2017-12-03T02:58:16.352Z,1.64
2017-12-03T03:00:44.628Z,1.67
2017-12-03T03:03:12.905Z,1.50
2017-12-03T03:05:41.200Z,1.38
2017-12-03T03:08:10.248Z,1.41
2017-12-03T03:10:38.532Z,1.41
2017-12-03T03:13:06.830Z,1.49
2017-12-03T03:15:35.104Z,1.47
2017-12-03T03:18:04.132Z,1.41
2017-12-03T03:20:32.408Z,1.54
2017-12-03T03:23:01.470Z,1.54
2017-12-03T03:25:29.747Z,1.50
2017-12-03T03:27:58.036Z,1.44
2017-12-03T03:30:26.325Z,1.57
2017-12-03T03:32:54.623Z,1.63
2017-12-03T03:35:22.900Z,1.70
2017-12-03T03:37:51.190Z,1.49
2017-12-03T03:40:19.468Z,1.53
2017-12-03T03:42:47.749Z,1.56
2017-12-03T03:45:16.036Z,1.47
2017-12-03T03:47:44.332Z,1.62
2017-12-03T03:50:12.608Z,1.67
2017-12-03T03:52:40.896Z,1.61
2017-12-03T03:55:09.180Z,1.59
2017-12-03T03:57:37.460Z,1.51
2017-12-03T04:00:06.504Z,1.60
2017-12-03T04:02:34.788Z,1.60
2017-12-03T04:05:03.059Z,1.49
2017-12-03T04:07:31.340Z,1.56
2017-12-03T04:09:59.623Z,1.45
2017-12-03T04:12:27.905Z,1.19
2017-12-03T04:14:56.196Z,1.27
2017-12-03T04:17:24.474Z,1.13
2017-12-03T04:19:52.761Z,1.23
2017-12-03T04:22:21.037Z,1.35
2017-12-03T04:24:50.612Z,1.35
2017-12-03T04:27:18.894Z,1.39
2017-12-03T04:29:47.179Z,1.46
2017-12-03T04:32:15.453Z,1.44
2017-12-03T04:34:43.742Z,1.39
2017-12-03T04:37:12.038Z,1.37
2017-12-03T04:39:40.312Z,1.28
2017-12-03T04:42:08.597Z,1.02
2017-12-03T04:44:36.887Z,1.08
2017-12-03T04:47:05.170Z,1.17
2017-12-03T04:49:33.456Z,1.24
2017-12-03T04:52:01.750Z,1.21
2017-12-03T04:54:30.031Z,1.07
2017-12-03T04:56:58.320Z,1.29
2017-12-03T04:59:26.604Z,1.09
2017-12-03T05:01:54.889Z,1.23
2017-12-03T05:04:23.193Z,1.25
2017-12-03T05:06:51.478Z,1.26
2017-12-03T05:09:19.760Z,1.25
2017-12-03T05:11:48.050Z,1.26
2017-12-03T05:14:16.329Z,1.29
2017-12-03T05:16:44.614Z,1.21
2017-12-03T05:19:12.891Z,1.25
2017-12-03T05:21:41.171Z,1.15
2017-12-03T05:24:09.453Z,1.11
2017-12-03T05:26:40.726Z,1.14
2017-12-03T05:29:10.284Z,1.14
2017-12-03T05:31:38.580Z,1.13
2017-12-03T05:34:06.856Z,1.09
2017-12-03T05:36:35.153Z,1.12
2017-12-03T05:39:03.436Z,1.10
2017-12-03T05:41:32.484Z,0.98
2017-12-03T05:44:00.758Z,1.02
2017-12-03T05:46:29.037Z,1.03
2017-12-03T05:48:57.322Z,1.05
2017-12-03T05:51:25.604Z,0.98
2017-12-03T05:53:53.882Z,0.72
2017-12-03T05:56:22.177Z,0.86
2017-12-03T05:58:50.460Z,0.69
2017-12-03T06:01:19.504Z,0.61
2017-12-03T06:03:47.784Z,0.77
2017-12-03T06:06:16.064Z,0.88
2017-12-03T06:08:44.349Z,0.88
2017-12-03T06:11:12.626Z,0.84
2017-12-03T06:13:40.926Z,0.87
2017-12-03T06:16:09.668Z,0.87
2017-12-03T06:18:37.952Z,0.77
2017-12-03T06:21:06.232Z,0.90
2017-12-03T06:23:34.516Z,0.94
2017-12-03T06:26:02.809Z,0.90
2017-12-03T06:28:31.146Z,0.87
2017-12-03T06:30:59.425Z,0.90
2017-12-03T06:33:27.696Z,0.87
2017-12-03T06:35:55.980Z,0.95
2017-12-03T06:38:24.252Z,0.93
2017-12-03T06:40:52.529Z,0.99
2017-12-03T06:43:20.813Z,0.93
2017-12-03T06:45:49.865Z,0.87
2017-12-03T06:48:18.150Z,0.77
2017-12-03T06:50:46.434Z,0.93
2017-12-03T06:53:14.724Z,0.84
2017-12-03T06:55:43.000Z,0.76
2017-12-03T06:58:11.284Z,0.77
2017-12-03T07:00:39.577Z,0.72
2017-12-03T07:03:07.876Z,0.78
2017-12-03T07:05:36.169Z,0.74
2017-12-03T07:08:04.472Z,0.77
2017-12-03T07:10:32.753Z,0.72
2017-12-03T07:13:01.065Z,0.76
2017-12-03T07:15:29.371Z,0.86
2017-12-03T07:17:57.657Z,0.64
2017-12-03T07:20:26.716Z,0.69
2017-12-03T07:22:56.084Z,0.63
2017-12-03T07:25:24.361Z,0.74
2017-12-03T07:27:52.649Z,0.81
2017-12-03T07:30:20.932Z,0.84
2017-12-03T07:32:49.220Z,0.73
2017-12-03T07:35:18.253Z,0.71
2017-12-03T07:37:46.548Z,1.01
2017-12-03T07:40:14.840Z,1.01
2017-12-03T07:42:43.126Z,1.12
2017-12-03T07:45:11.412Z,1.01
2017-12-03T07:47:39.704Z,0.97
2017-12-03T07:50:07.993Z,0.89
2017-12-03T07:52:36.277Z,0.86
2017-12-03T07:55:04.572Z,0.75
2017-12-03T07:57:32.863Z,0.88
2017-12-03T08:00:01.150Z,0.89
2017-12-03T08:02:29.439Z,1.00
2017-12-03T08:04:57.722Z,1.02
2017-12-03T08:07:26.009Z,1.13
2017-12-03T08:09:54.296Z,0.97
2017-12-03T08:12:22.589Z,0.91
2017-12-03T08:14:51.644Z,1.01
2017-12-03T08:17:19.947Z,1.20
2017-12-03T08:19:48.251Z,1.17
2017-12-03T08:22:16.528Z,1.17
2017-12-03T08:24:44.845Z,1.23
2017-12-03T08:27:13.141Z,1.17
2017-12-03T08:29:42.294Z,1.20
2017-12-03T08:32:10.576Z,1.28
2017-12-03T08:34:38.871Z,1.30
2017-12-03T08:37:07.164Z,1.45
2017-12-03T08:39:35.483Z,1.54
2017-12-03T08:42:03.775Z,1.28
2017-12-03T08:44:32.094Z,1.43
2017-12-03T08:47:01.842Z,1.32
2017-12-03T08:49:30.884Z,1.38
2017-12-03T08:51:59.170Z,1.39
2017-12-03T08:54:27.472Z,1.37
2017-12-03T08:56:55.775Z,1.40
2017-12-03T08:59:24.066Z,1.42
2017-12-03T09:01:52.856Z,1.28
2017-12-03T09:04:21.148Z,1.30
2017-12-03T09:06:49.428Z,1.40
2017-12-03T09:09:17.710Z,1.43
2017-12-03T09:11:46.062Z,1.35
2017-12-03T09:14:14.356Z,1.38
2017-12-03T09:16:43.125Z,1.28
2017-12-03T09:19:11.417Z,1.41
2017-12-03T09:21:39.705Z,1.34
2017-12-03T09:24:07.997Z,1.41
2017-12-03T09:26:36.294Z,1.40
2017-12-03T09:29:04.581Z,1.49
2017-12-03T09:31:33.632Z,1.45
2017-12-03T09:34:01.914Z,1.44
2017-12-03T09:36:30.205Z,1.49
2017-12-03T09:38:58.496Z,1.54
2017-12-03T09:41:26.782Z,1.58
2017-12-03T09:43:55.084Z,1.55
2017-12-03T09:46:23.379Z,1.61
2017-12-03T09:48:51.660Z,1.65
2017-12-03T09:51:19.955Z,1.69
2017-12-03T09:53:48.251Z,1.69
2017-12-03T09:56:18.201Z,1.66
2017-12-03T09:58:46.485Z,1.82
2017-12-03T10:01:14.777Z,1.77
2017-12-03T10:03:43.077Z,1.85
2017-12-03T10:06:11.355Z,1.97
2017-12-03T10:08:39.636Z,2.05
2017-12-03T10:11:09.205Z,1.97
2017-12-03T10:13:37.477Z,2.04
2017-12-03T10:16:05.781Z,2.05
2017-12-03T10:18:34.079Z,2.08
2017-12-03T10:21:02.369Z,2.09
2017-12-03T10:23:30.656Z,2.11
2017-12-03T10:25:58.954Z,2.00
2017-12-03T10:28:27.252Z,1.81
2017-12-03T10:30:55.549Z,1.94
2017-12-03T10:33:23.866Z,1.97
2017-12-03T10:35:52.913Z,1.86
2017-12-03T10:38:21.198Z,1.90
2017-12-03T10:40:49.476Z,1.77
2017-12-03T10:43:17.809Z,1.80
2017-12-03T10:45:46.919Z,1.85
2017-12-03T10:48:15.209Z,1.69
2017-12-03T10:50:43.487Z,1.78
2017-12-03T10:53:11.772Z,1.54
2017-12-03T10:55:40.316Z,1.60
2017-12-03T10:58:08.832Z,1.55
2017-12-03T11:00:38.786Z,1.50
2017-12-03T11:03:08.442Z,1.42
2017-12-03T11:05:36.734Z,1.52
2017-12-03T11:08:05.029Z,1.69
2017-12-03T11:10:33.340Z,1.78
2017-12-03T11:13:01.628Z,1.70
2017-12-03T11:15:29.952Z,1.66
2017-12-03T11:17:58.942Z,1.67
2017-12-03T11:20:27.275Z,1.69
2017-12-03T11:22:55.552Z,1.78
2017-12-03T11:25:23.843Z,1.82
2017-12-03T11:27:53.812Z,1.89
2017-12-03T11:30:22.866Z,1.76
2017-12-03T11:32:51.145Z,1.74
2017-12-03T11:35:20.492Z,1.81
2017-12-03T11:37:50.565Z,1.78
2017-12-03T11:40:18.982Z,1.83
2017-12-03T11:42:48.945Z,1.79
2017-12-03T11:45:17.220Z,1.73
2017-12-03T11:47:45.709Z,1.79
2017-12-03T11:50:13.992Z,1.89
2017-12-03T11:52:42.360Z,1.88
2017-12-03T11:55:10.649Z,1.90
2017-12-03T11:57:38.941Z,1.68
2017-12-03T12:00:07.230Z,1.84
2017-12-03T12:02:36.277Z,1.76
2017-12-03T12:05:04.578Z,1.87
2017-12-03T12:07:32.888Z,1.90
2017-12-03T12:10:01.180Z,1.75
2017-12-03T12:12:29.450Z,1.73
2017-12-03T12:14:57.731Z,1.74
2017-12-03T12:17:26.025Z,1.77
2017-12-03T12:19:54.310Z,1.75
2017-12-03T12:22:22.594Z,1.70
2017-12-03T12:24:50.869Z,1.65
2017-12-03T12:27:19.157Z,1.69
2017-12-03T12:29:47.514Z,1.69
2017-12-03T12:32:15.809Z,1.60
2017-12-03T12:34:44.105Z,1.72
2017-12-03T12:37:12.445Z,1.82
2017-12-03T12:39:40.728Z,1.90
2017-12-03T12:42:09.022Z,1.88
2017-12-03T12:44:37.411Z,1.81
2017-12-03T12:47:05.702Z,1.81
2017-12-03T12:49:33.993Z,1.94
2017-12-03T12:52:02.325Z,1.84
2017-12-03T12:54:30.613Z,1.91
2017-12-03T12:56:58.910Z,1.85
2017-12-03T12:59:27.256Z,1.88
2017-12-03T13:01:55.622Z,1.81
2017-12-03T13:04:23.909Z,1.90
2017-12-03T13:06:52.229Z,1.91
2017-12-03T13:09:21.279Z,2.14
2017-12-03T13:11:49.565Z,2.00
2017-12-03T13:14:17.880Z,2.14
2017-12-03T13:16:47.193Z,2.19
2017-12-03T13:19:16.974Z,2.21
2017-12-03T13:21:46.024Z,2.25
2017-12-03T13:24:14.316Z,2.22
2017-12-03T13:26:43.249Z,2.34
2017-12-03T13:29:12.302Z,2.22
2017-12-03T13:31:40.586Z,2.20
2017-12-03T13:34:08.893Z,1.85
2017-12-03T13:36:37.183Z,1.94
2017-12-03T13:39:05.466Z,1.92
2017-12-03T13:41:33.760Z,1.88
2017-12-03T13:44:02.049Z,1.68
2017-12-03T13:46:30.369Z,1.69
2017-12-03T13:48:58.737Z,1.70
2017-12-03T13:51:27.057Z,1.81
2017-12-03T13:53:55.351Z,1.63
2017-12-03T13:56:23.635Z,1.62
2017-12-03T13:58:51.933Z,1.65
2017-12-03T14:01:20.252Z,1.85
2017-12-03T14:03:48.551Z,1.79
2017-12-03T14:06:16.832Z,1.93
2017-12-03T14:08:45.148Z,1.99
2017-12-03T14:11:13.641Z,2.01
2017-12-03T14:13:41.935Z,1.97
2017-12-03T14:16:10.266Z,1.95
2017-12-03T14:18:38.588Z,2.01
2017-12-03T14:21:06.885Z,2.05
2017-12-03T14:23:35.193Z,2.21
2017-12-03T14:26:03.518Z,2.15
2017-12-03T14:28:31.845Z,2.18
2017-12-03T14:31:00.153Z,2.10
2017-12-03T14:33:29.228Z,2.11
2017-12-03T14:35:57.543Z,2.13
2017-12-03T14:38:26.580Z,2.28
2017-12-03T14:40:54.860Z,2.29
2017-12-03T14:43:23.209Z,2.33
2017-12-03T14:45:51.566Z,2.25
2017-12-03T14:48:19.938Z,2.18
2017-12-03T14:50:48.244Z,2.17
2017-12-03T14:53:16.541Z,2.16
2017-12-03T14:55:44.832Z,2.20
2017-12-03T14:58:13.764Z,2.38
2017-12-03T15:00:42.058Z,2.38
2017-12-03T15:03:10.376Z,2.47
2017-12-03T15:05:38.677Z,2.44
2017-12-03T15:08:07.745Z,2.50
2017-12-03T15:10:36.048Z,2.49
2017-12-03T15:13:05.227Z,2.44
2017-12-03T15:15:33.697Z,2.46
2017-12-03T15:18:02.156Z,2.46
2017-12-03T15:20:30.489Z,2.54
2017-12-03T15:22:59.649Z,2.57
2017-12-03T15:25:27.994Z,2.50
2017-12-03T15:27:56.282Z,2.56
2017-12-03T15:30:24.593Z,2.58
2017-12-03T15:32:52.889Z,2.60
2017-12-03T15:35:21.364Z,2.53
2017-12-03T15:37:49.727Z,2.56
2017-12-03T15:40:18.243Z,2.57
2017-12-03T15:42:46.577Z,2.57
2017-12-03T15:45:16.187Z,2.58
2017-12-03T15:47:44.489Z,2.66
2017-12-03T15:50:12.861Z,2.64
2017-12-03T15:52:41.152Z,2.72
2017-12-03T15:55:09.447Z,2.64
2017-12-03T15:57:37.965Z,2.58
2017-12-03T16:00:06.297Z,2.68
2017-12-03T16:02:34.675Z,2.69
2017-12-03T16:05:03.207Z,2.69
2017-12-03T16:07:31.641Z,2.71
2017-12-03T16:10:01.347Z,2.69
2017-12-03T16:12:29.863Z,2.57
2017-12-03T16:14:58.224Z,2.61
2017-12-03T16:17:26.695Z,2.43
2017-12-03T16:19:55.379Z,2.48
2017-12-03T16:22:24.224Z,2.57
2017-12-03T16:24:53.863Z,2.27
2017-12-03T16:27:22.389Z,2.39
2017-12-03T16:29:52.134Z,2.44
2017-12-03T16:32:21.353Z,2.53
2017-12-03T16:34:50.911Z,2.72
2017-12-03T16:37:20.081Z,2.73
2017-12-03T16:39:49.778Z,2.79
2017-12-03T16:42:19.674Z,3.01
2017-12-03T16:44:49.262Z,3.12
2017-12-03T16:47:19.104Z,3.09
2017-12-03T16:49:48.965Z,3.19
2017-12-03T16:52:18.727Z,3.13
2017-12-03T16:54:48.422Z,3.23
2017-12-03T16:57:18.054Z,3.23
2017-12-03T16:59:48.530Z,3.20
2017-12-03T17:02:18.138Z,3.23
2017-12-03T17:04:47.636Z,3.35
2017-12-03T17:07:17.160Z,3.43
2017-12-03T17:09:46.930Z,3.51
2017-12-03T17:12:16.692Z,3.53
2017-12-03T17:14:46.375Z,3.52
2017-12-03T17:17:16.191Z,3.50
2017-12-03T17:19:45.975Z,3.47
2017-12-03T17:22:15.836Z,3.49
2017-12-03T17:24:45.804Z,3.47
2017-12-03T17:27:15.787Z,3.58
2017-12-03T17:29:45.556Z,3.66
2017-12-03T17:32:15.296Z,3.65
2017-12-03T17:34:45.110Z,3.71
2017-12-03T17:37:14.862Z,3.68
2017-12-03T17:39:45.391Z,3.72
2017-12-03T17:42:15.200Z,3.71
2017-12-03T17:44:45.034Z,3.70
2017-12-03T17:47:14.820Z,3.82
2017-12-03T17:49:45.173Z,3.75
2017-12-03T17:52:15.816Z,3.73
2017-12-03T17:54:46.673Z,3.70
2017-12-03T17:57:16.498Z,3.72
2017-12-03T17:59:46.356Z,3.81
2017-12-03T18:02:16.079Z,3.82
2017-12-03T18:04:45.891Z,3.76
2017-12-03T18:07:15.768Z,3.63
2017-12-03T18:09:45.554Z,3.59
2017-12-03T18:12:15.410Z,3.69
2017-12-03T18:14:45.159Z,3.63
2017-12-03T18:17:15.036Z,3.66
2017-12-03T18:19:44.947Z,3.49
2017-12-03T18:22:15.635Z,3.40
2017-12-03T18:24:45.699Z,3.27
2017-12-03T18:27:15.720Z,3.29
2017-12-03T18:29:46.002Z,3.27
2017-12-03T18:32:15.985Z,3.35
2017-12-03T18:34:46.008Z,3.49
2017-12-03T18:37:15.922Z,3.48
2017-12-03T18:39:45.978Z,3.63
2017-12-03T18:42:16.038Z,3.53
2017-12-03T18:44:46.074Z,3.65
2017-12-03T18:47:21.395Z,3.69
2017-12-03T18:49:53.462Z,3.54
2017-12-03T18:52:23.398Z,3.58
2017-12-03T18:54:54.395Z,3.70
2017-12-03T18:57:25.225Z,3.79
2017-12-03T18:59:55.320Z,3.90
2017-12-03T19:02:25.295Z,3.93
2017-12-03T19:04:55.338Z,3.84
2017-12-03T19:07:25.513Z,3.78
2017-12-03T19:09:55.422Z,3.86
2017-12-03T19:12:25.341Z,3.86
2017-12-03T19:14:55.208Z,3.96
2017-12-03T19:17:25.043Z,3.99
2017-12-03T19:19:54.876Z,4.02
2017-12-03T19:22:25.475Z,3.89
2017-12-03T19:24:57.164Z,3.97
2017-12-03T19:27:28.239Z,4.03
2017-12-03T19:29:58.056Z,4.00
2017-12-03T19:32:28.259Z,4.05
2017-12-03T19:35:00.661Z,3.97
2017-12-03T19:37:31.337Z,3.92
2017-12-03T19:40:03.355Z,3.83
2017-12-03T19:42:33.224Z,3.92
2017-12-03T19:45:03.133Z,3.78
2017-12-03T19:47:33.101Z,3.72
2017-12-03T19:50:03.789Z,3.80
2017-12-03T19:52:34.111Z,3.78
2017-12-03T19:55:04.071Z,3.66
2017-12-03T19:57:33.933Z,3.69
2017-12-03T20:00:03.911Z,3.69
2017-12-03T20:02:34.035Z,3.67
2017-12-03T20:05:04.148Z,3.67
2017-12-03T20:07:34.209Z,3.66
2017-12-03T20:10:05.775Z,3.66
2017-12-03T20:12:35.999Z,3.48
2017-12-03T20:15:05.891Z,3.52
2017-12-03T20:17:36.704Z,3.48
2017-12-03T20:20:07.515Z,3.52
2017-12-03T20:22:37.690Z,3.57
2017-12-03T20:25:07.724Z,3.36
2017-12-03T20:27:37.843Z,3.44
2017-12-03T20:30:08.026Z,3.43
2017-12-03T20:32:38.115Z,3.44
2017-12-03T20:35:08.287Z,3.53
2017-12-03T20:37:38.365Z,3.61
2017-12-03T20:40:13.635Z,3.71
2017-12-03T20:42:44.365Z,3.51
2017-12-03T20:45:14.401Z,3.31
2017-12-03T20:47:44.494Z,3.09
2017-12-03T20:50:14.539Z,3.20
2017-12-03T20:52:44.455Z,3.00
2017-12-03T20:55:15.268Z,3.06
2017-12-03T20:57:45.540Z,3.21
2017-12-03T21:00:15.552Z,3.32
2017-12-03T21:02:45.552Z,3.30
2017-12-03T21:05:15.552Z,3.47
2017-12-03T21:07:45.438Z,3.56
2017-12-03T21:10:16.142Z,3.64
2017-12-03T21:12:46.121Z,3.71
2017-12-03T21:15:16.169Z,3.57
2017-12-03T21:17:46.153Z,3.61
2017-12-03T21:20:15.962Z,3.65
2017-12-03T21:22:46.588Z,3.80
2017-12-03T21:25:16.451Z,3.87
2017-12-03T21:27:46.937Z,3.84
2017-12-03T21:30:17.765Z,3.78
2017-12-03T21:32:48.467Z,3.74
2017-12-03T21:35:18.338Z,3.64
2017-12-03T21:37:49.055Z,3.63
2017-12-03T21:40:19.546Z,3.71
2017-12-03T21:42:50.055Z,3.80
2017-12-03T21:45:19.951Z,3.90
2017-12-03T21:47:50.488Z,3.98
2017-12-03T21:50:20.020Z,3.87
2017-12-03T21:52:49.493Z,3.90
2017-12-03T21:55:18.944Z,3.97
2017-12-03T21:57:48.061Z,3.99
2017-12-03T22:00:18.186Z,3.95
2017-12-03T22:02:46.643Z,3.99
2017-12-03T22:05:14.952Z,3.99
2017-12-03T22:07:43.292Z,3.97
2017-12-03T22:10:11.593Z,3.96
2017-12-03T22:12:39.899Z,3.89
2017-12-03T22:15:08.197Z,3.90
2017-12-03T22:17:36.518Z,3.92
2017-12-03T22:20:04.816Z,4.00
2017-12-03T22:22:33.106Z,3.99
2017-12-03T22:25:01.397Z,4.00
2017-12-03T22:27:29.744Z,4.06
2017-12-03T22:29:58.036Z,3.98
2017-12-03T22:32:26.321Z,4.01
2017-12-03T22:34:54.604Z,4.08
2017-12-03T22:37:22.882Z,4.13
2017-12-03T22:39:51.179Z,4.09
2017-12-03T22:42:19.884Z,4.15
2017-12-03T22:44:48.277Z,4.11
2017-12-03T22:47:16.559Z,4.10
2017-12-03T22:49:44.832Z,4.11
2017-12-03T22:52:13.178Z,4.23
2017-12-03T22:54:41.465Z,4.30
2017-12-03T22:57:09.761Z,4.31
2017-12-03T22:59:38.045Z,4.26
2017-12-03T23:02:06.332Z,4.24
2017-12-03T23:04:34.631Z,4.24
2017-12-03T23:07:02.952Z,4.11
2017-12-03T23:09:31.252Z,4.11
2017-12-03T23:11:59.556Z,4.00
2017-12-03T23:14:27.841Z,4.01
2017-12-03T23:16:56.123Z,4.02
2017-12-03T23:19:25.159Z,4.07
2017-12-03T23:21:53.617Z,4.13
2017-12-03T23:24:27.145Z,4.18
2017-12-03T23:26:55.419Z,4.07
2017-12-03T23:29:23.704Z,4.04
2017-12-03T23:31:51.985Z,3.91
2017-12-03T23:34:20.279Z,3.84
2017-12-03T23:36:48.764Z,3.54
2017-12-03T23:39:17.085Z,3.75
2017-12-03T23:41:45.365Z,3.57
2017-12-03T23:44:13.654Z,3.72
2017-12-03T23:46:41.958Z,3.67
2017-12-03T23:49:10.243Z,3.71
2017-12-03T23:51:38.561Z,3.76
2017-12-03T23:54:06.844Z,3.79
2017-12-03T23:56:35.130Z,3.82
2017-12-03T23:59:03.413Z,3.85
